Caliente, NV

1:21 PM PDT on April 25, 2017 (GMT -0700)
Saint George Municipal | | Change Station

Elev 2884 ft 37.04 °N, 113.51 °W | Updated 25 minutes ago

Clear
Clear
69 °F
Feels Like 69 °F
N
17
Wind Variable Wind from WNW
Gusts 21 mph

Today
High -- | Low -- °F
--% Chance of Precip.
Yesterday
High -- | Low -- °F
Precip. -- in
Pressure 29.76 in
Visibility 10.0 miles
Clouds Scattered Clouds 10000 ft
Dew Point 21 °F
Humidity 16%
Rainfall 0.00 in
Snow Depth Not available.
5:49 AM 7:23 PM
Waning Crescent, 1% visible
METAR KSGU 251956Z AUTO 29015G18KT 10SM SCT100 21/M06 A2976 RMK AO2 SLPNO T02061061
Pressure 29.76 in
Visibility 10.0 miles
Clouds Scattered Clouds 10000 ft
Dew Point 21 °F
Humidity 16%
Rainfall 0.00 in
Snow Depth Not available.
5:49 AM 7:23 PM
Waning Crescent, 1% visible
METAR KSGU 251956Z AUTO 29015G18KT 10SM SCT100 21/M06 A2976 RMK AO2 SLPNO T02061061

Get Severe Weather Alerts

Thanks for signing up!

Be on the lookout for a verification email in your inbox.

You'll start receiving the daily forecast at 8 AM.

×

10-Day Weather Forecast

Almanac

Astronomy

Apr. 25, 2017 Rise Set
Actual Time
Civil Twilight
Nautical Twilight
Astronomical Twilight
Moon
Length of Visible Light
Length of Day
Tomorrow will be .
, % of the Moon is Illuminated

Today's Extremes

State Highs State Lows

Community

WunderPhotos

WunderBlog® & News

Nearby

Air Quality

  Air Quality AQ Index Pollutant
Not available.

Snow Depth

Station Depth Elevation

Earthquake Activity

City Distance Mag. Time & Date
Minimum magnitude displayed is 2.5.

Coastal Water Temperatures

Place Temperature

Stations

Nearby Weather Stations

Station Location Temp. Windchill Dew Point Humidity Wind Precip. Elev Updated Type
                   

Watches & Warnings

There are currently no watches in effect.